createdAt,value
2024-02-22T00:01:43.548Z,4.48
2024-02-22T00:04:10.376Z,4.46
2024-02-22T00:06:39.617Z,4.66
2024-02-22T00:09:06.423Z,5.21
2024-02-22T00:11:33.460Z,5.60
2024-02-22T00:14:00.412Z,5.90
2024-02-22T00:16:27.359Z,5.78
2024-02-22T00:18:54.634Z,6.02
2024-02-22T00:21:21.404Z,6.11
2024-02-22T00:23:49.150Z,6.19
2024-02-22T00:26:16.122Z,6.16
2024-02-22T00:28:43.551Z,6.26
2024-02-22T00:31:10.367Z,6.16
2024-02-22T00:33:37.228Z,5.40
2024-02-22T00:36:04.306Z,5.32
2024-02-22T00:38:31.109Z,5.59
2024-02-22T00:40:57.910Z,5.27
2024-02-22T00:43:24.727Z,5.59
2024-02-22T00:45:51.510Z,5.57
2024-02-22T00:48:18.550Z,5.64
2024-02-22T00:50:45.536Z,5.52
2024-02-22T00:53:12.656Z,5.37
2024-02-22T00:55:40.514Z,5.52
2024-02-22T00:58:10.511Z,5.50
2024-02-22T01:00:37.766Z,5.32
2024-02-22T01:03:06.210Z,5.43
2024-02-22T01:05:33.581Z,5.41
2024-02-22T01:08:01.137Z,5.36
2024-02-22T01:10:28.073Z,5.50
2024-02-22T01:12:55.021Z,5.63
2024-02-22T01:15:21.795Z,5.64
2024-02-22T01:17:48.703Z,5.11
2024-02-22T01:20:15.791Z,4.35
2024-02-22T01:22:42.651Z,4.15
2024-02-22T01:25:10.703Z,4.02
2024-02-22T01:27:37.659Z,4.39
2024-02-22T01:30:05.509Z,4.62
2024-02-22T01:32:32.380Z,4.74
2024-02-22T01:34:59.235Z,4.63
2024-02-22T01:37:25.993Z,4.36
2024-02-22T01:39:52.733Z,4.02
2024-02-22T01:42:19.485Z,3.71
2024-02-22T01:44:46.744Z,3.63
2024-02-22T01:47:14.549Z,4.04
2024-02-22T01:49:41.676Z,3.96
2024-02-22T01:52:10.027Z,3.93
2024-02-22T01:54:37.181Z,4.34
2024-02-22T01:57:05.370Z,4.81
2024-02-22T01:59:33.068Z,4.45
2024-02-22T02:02:00.918Z,3.67
2024-02-22T02:04:30.425Z,3.71
2024-02-22T02:06:57.238Z,4.42
2024-02-22T02:09:24.110Z,4.83
2024-02-22T02:11:50.944Z,5.10
2024-02-22T02:14:17.865Z,4.80
2024-02-22T02:16:44.693Z,4.64
2024-02-22T02:19:18.192Z,4.76
2024-02-22T02:22:06.281Z,4.64
2024-02-22T02:24:42.399Z,4.72
2024-02-22T02:27:09.212Z,4.79
2024-02-22T02:29:35.972Z,4.77
2024-02-22T02:32:02.889Z,4.62
2024-02-22T02:34:29.967Z,4.52
2024-02-22T02:36:56.809Z,4.46
2024-02-22T02:39:23.587Z,4.29
2024-02-22T02:41:50.397Z,3.76
2024-02-22T02:44:17.176Z,4.09
2024-02-22T02:46:44.014Z,4.03
2024-02-22T02:49:10.874Z,4.57
2024-02-22T02:51:37.647Z,4.97
2024-02-22T02:54:04.743Z,5.11
2024-02-22T02:56:33.162Z,5.06
2024-02-22T02:59:00.524Z,4.92
2024-02-22T03:01:27.467Z,5.24
2024-02-22T03:03:54.336Z,5.44
2024-02-22T03:06:21.160Z,5.51
2024-02-22T03:08:47.958Z,5.57
2024-02-22T03:11:14.873Z,5.58
2024-02-22T03:13:42.033Z,5.00
2024-02-22T03:16:08.900Z,4.76
2024-02-22T03:18:35.770Z,4.94
2024-02-22T03:21:02.681Z,4.84
2024-02-22T03:23:29.472Z,4.93
2024-02-22T03:25:57.144Z,4.83
2024-02-22T03:28:23.992Z,5.06
2024-02-22T03:30:53.514Z,5.14
2024-02-22T03:33:20.569Z,5.26
2024-02-22T03:35:47.304Z,5.02
2024-02-22T03:38:14.122Z,4.52
2024-02-22T03:40:41.320Z,4.28
2024-02-22T03:43:08.602Z,4.16
2024-02-22T03:45:35.486Z,4.14
2024-02-22T03:48:02.355Z,4.09
2024-02-22T03:50:29.135Z,4.46
2024-02-22T03:52:56.055Z,4.70
2024-02-22T03:55:22.859Z,4.98
2024-02-22T03:57:49.716Z,4.46
2024-02-22T04:00:17.065Z,4.21
2024-02-22T04:02:48.087Z,3.98
2024-02-22T04:05:16.308Z,4.05
2024-02-22T04:07:43.481Z,4.15
2024-02-22T04:10:10.741Z,4.27
2024-02-22T04:12:37.759Z,4.13
2024-02-22T04:15:04.969Z,3.86
2024-02-22T04:17:31.664Z,4.10
2024-02-22T04:19:58.525Z,3.85
2024-02-22T04:22:25.912Z,3.36
2024-02-22T04:24:52.571Z,3.87
2024-02-22T04:27:19.342Z,4.32
2024-02-22T04:29:46.092Z,4.18
2024-02-22T04:32:12.883Z,3.58
2024-02-22T04:34:39.766Z,3.54
2024-02-22T04:37:07.416Z,3.03
2024-02-22T04:39:34.168Z,3.46
2024-02-22T04:42:00.948Z,3.72
2024-02-22T04:44:27.697Z,4.04
2024-02-22T04:46:54.562Z,4.06
2024-02-22T04:49:21.390Z,4.20
2024-02-22T04:51:48.895Z,4.41
2024-02-22T04:54:16.446Z,4.30
2024-02-22T04:56:43.201Z,4.33
2024-02-22T04:59:09.968Z,4.24
2024-02-22T05:01:40.937Z,4.56
2024-02-22T05:04:09.472Z,4.74
2024-02-22T05:06:36.945Z,4.77
2024-02-22T05:09:03.817Z,4.63
2024-02-22T05:11:30.678Z,4.96
2024-02-22T05:13:58.973Z,5.25
2024-02-22T05:16:25.825Z,5.41
2024-02-22T05:18:53.523Z,5.30
2024-02-22T05:21:20.458Z,5.38
2024-02-22T05:23:47.776Z,5.39
2024-02-22T05:26:14.780Z,5.60
2024-02-22T05:28:41.678Z,5.52
2024-02-22T05:31:21.997Z,5.63
2024-02-22T05:33:48.771Z,5.33
2024-02-22T05:36:17.108Z,5.42
2024-02-22T05:38:43.844Z,5.21
2024-02-22T05:41:10.778Z,5.34
2024-02-22T05:43:37.610Z,5.47
2024-02-22T05:46:04.488Z,5.51
2024-02-22T05:48:31.354Z,5.58
2024-02-22T05:50:58.309Z,5.59
2024-02-22T05:53:25.113Z,5.58
2024-02-22T05:55:51.927Z,5.39
2024-02-22T05:58:19.007Z,5.39
2024-02-22T06:00:46.532Z,5.46
2024-02-22T06:03:13.584Z,5.18
2024-02-22T06:05:40.594Z,5.16
2024-02-22T06:08:07.785Z,4.81
2024-02-22T06:10:34.495Z,5.15
2024-02-22T06:13:01.926Z,5.37
2024-02-22T06:15:28.679Z,5.47
2024-02-22T06:17:55.565Z,5.45
2024-02-22T06:20:22.944Z,5.48
2024-02-22T06:22:49.817Z,5.46
2024-02-22T06:25:16.857Z,5.37
2024-02-22T06:27:44.180Z,5.48
2024-02-22T06:30:11.861Z,5.79
2024-02-22T06:32:38.721Z,5.41
2024-02-22T06:35:08.108Z,5.68
2024-02-22T06:37:35.068Z,4.84
2024-02-22T06:40:02.447Z,5.48
2024-02-22T06:42:29.726Z,5.91
2024-02-22T06:44:56.977Z,5.80
2024-02-22T06:47:24.408Z,5.94
2024-02-22T06:49:51.351Z,6.11
2024-02-22T06:52:18.333Z,6.28
2024-02-22T06:54:45.073Z,6.49
2024-02-22T06:57:11.876Z,6.74
2024-02-22T06:59:38.601Z,6.77
2024-02-22T07:02:06.578Z,6.86
2024-02-22T07:04:33.633Z,7.08
2024-02-22T07:07:00.810Z,7.36
2024-02-22T07:09:27.618Z,7.15
2024-02-22T07:11:58.646Z,7.26
2024-02-22T07:14:25.684Z,7.48
2024-02-22T07:16:52.565Z,7.53
2024-02-22T07:19:20.085Z,7.49
2024-02-22T07:21:46.901Z,7.91
2024-02-22T07:24:13.710Z,8.20
2024-02-22T07:26:40.445Z,8.46
2024-02-22T07:29:11.097Z,8.72
2024-02-22T07:31:39.060Z,8.94
2024-02-22T07:34:05.936Z,8.97
2024-02-22T07:36:32.757Z,8.85
2024-02-22T07:39:00.066Z,9.09
2024-02-22T07:41:26.701Z,9.38
2024-02-22T07:43:53.496Z,9.54
2024-02-22T07:46:20.328Z,9.71
2024-02-22T07:48:47.263Z,9.85
2024-02-22T07:51:14.000Z,9.94
2024-02-22T07:53:42.656Z,10.11
2024-02-22T07:56:09.663Z,10.00
2024-02-22T07:58:46.861Z,10.03
2024-02-22T08:01:14.457Z,10.34
2024-02-22T08:03:43.288Z,10.21
2024-02-22T08:06:13.799Z,10.25
2024-02-22T08:08:41.681Z,10.43
2024-02-22T08:11:09.796Z,10.70
2024-02-22T08:13:36.891Z,10.90
2024-02-22T08:16:09.039Z,11.24
2024-02-22T08:18:37.314Z,11.51
2024-02-22T08:21:04.970Z,11.65
2024-02-22T08:23:31.957Z,11.69
2024-02-22T08:25:59.325Z,11.65
2024-02-22T08:28:27.664Z,11.92
2024-02-22T08:30:54.650Z,12.30
2024-02-22T08:33:25.030Z,12.67
2024-02-22T08:35:52.359Z,12.46
2024-02-22T08:38:19.267Z,12.68
2024-02-22T08:40:46.096Z,12.95
2024-02-22T08:43:12.870Z,13.00
2024-02-22T08:45:39.669Z,13.20
2024-02-22T08:48:07.076Z,13.27
2024-02-22T08:50:34.043Z,13.46
2024-02-22T08:53:01.052Z,13.50
2024-02-22T08:55:27.824Z,13.71
2024-02-22T08:57:56.173Z,13.80
2024-02-22T09:00:24.905Z,14.29
2024-02-22T09:02:52.531Z,14.78
2024-02-22T09:05:20.678Z,14.54
2024-02-22T09:07:51.820Z,14.62
2024-02-22T09:10:19.055Z,14.43
2024-02-22T09:12:46.072Z,14.85
2024-02-22T09:15:13.181Z,14.88
2024-02-22T09:17:40.045Z,15.44
2024-02-22T09:20:07.555Z,16.00
2024-02-22T09:22:34.491Z,15.99
2024-02-22T09:25:01.759Z,15.63
2024-02-22T09:27:30.333Z,15.79
2024-02-22T09:29:59.416Z,15.89
2024-02-22T09:32:26.444Z,16.12
2024-02-22T09:34:53.970Z,15.87
2024-02-22T09:37:23.901Z,15.67
2024-02-22T09:39:52.139Z,15.49
2024-02-22T09:42:19.966Z,15.48
2024-02-22T09:44:47.891Z,15.38
2024-02-22T09:47:16.768Z,15.38
2024-02-22T09:49:44.320Z,15.56
2024-02-22T09:52:13.856Z,15.54
2024-02-22T09:54:40.960Z,15.55
2024-02-22T09:57:07.788Z,15.82
2024-02-22T09:59:35.284Z,15.74
2024-02-22T10:02:07.365Z,16.01
2024-02-22T10:04:34.476Z,15.43
2024-02-22T10:07:02.493Z,15.06
2024-02-22T10:09:30.676Z,15.57
2024-02-22T10:11:57.801Z,15.39
2024-02-22T10:14:26.182Z,15.76
2024-02-22T10:16:53.365Z,15.65
2024-02-22T10:19:20.063Z,15.70
2024-02-22T10:21:47.961Z,15.64
2024-02-22T10:24:15.218Z,15.72
2024-02-22T10:26:42.399Z,15.63
2024-02-22T10:29:14.578Z,15.82
2024-02-22T10:31:49.899Z,15.94
2024-02-22T10:37:05.577Z,15.30
2024-02-22T10:39:33.346Z,15.93
2024-02-22T10:42:00.306Z,15.67
2024-02-22T10:44:27.043Z,15.24
2024-02-22T10:46:54.439Z,15.12
2024-02-22T10:49:24.739Z,15.60
2024-02-22T10:51:53.785Z,15.94
2024-02-22T10:54:20.781Z,15.79
2024-02-22T10:56:50.182Z,14.90
2024-02-22T10:59:21.830Z,15.25
2024-02-22T11:01:52.030Z,14.73
2024-02-22T11:04:19.278Z,14.76
2024-02-22T11:06:49.573Z,14.60
2024-02-22T11:09:21.537Z,14.48
2024-02-22T11:11:50.044Z,14.73
2024-02-22T11:14:30.373Z,14.49
2024-02-22T11:17:00.623Z,14.10
2024-02-22T11:19:28.031Z,14.54
2024-02-22T11:21:54.886Z,13.78
2024-02-22T11:24:24.396Z,13.94
2024-02-22T11:26:53.720Z,14.00
2024-02-22T11:29:28.309Z,14.24
2024-02-22T11:31:55.730Z,14.38
2024-02-22T11:34:23.078Z,13.84
2024-02-22T11:36:49.868Z,14.36
2024-02-22T11:39:19.843Z,14.13
2024-02-22T11:41:50.289Z,13.70
2024-02-22T11:44:17.906Z,13.74
2024-02-22T11:46:45.506Z,13.24
2024-02-22T11:49:12.560Z,12.83
2024-02-22T11:51:41.386Z,12.74
2024-02-22T11:54:08.468Z,12.86
2024-02-22T11:56:36.025Z,13.10
2024-02-22T11:59:04.182Z,13.29
2024-02-22T12:01:32.877Z,13.23
2024-02-22T12:04:00.268Z,13.31
2024-02-22T12:06:27.800Z,13.16
2024-02-22T12:08:55.289Z,12.92
2024-02-22T12:11:23.201Z,12.57
2024-02-22T12:13:57.448Z,12.95
2024-02-22T12:16:24.800Z,12.52
2024-02-22T12:18:52.538Z,12.85
2024-02-22T12:21:24.178Z,12.64
2024-02-22T12:23:51.322Z,12.79
2024-02-22T12:26:18.798Z,13.06
2024-02-22T12:28:55.469Z,13.48
2024-02-22T12:31:23.216Z,13.38
2024-02-22T12:33:52.161Z,13.50
2024-02-22T12:36:19.980Z,13.34
2024-02-22T12:38:47.019Z,13.44
2024-02-22T12:41:18.888Z,13.39
2024-02-22T12:43:51.679Z,13.75
2024-02-22T12:46:18.701Z,13.56
2024-02-22T12:48:45.835Z,13.65
2024-02-22T12:51:12.934Z,13.46
2024-02-22T12:53:40.787Z,12.88
2024-02-22T12:56:08.284Z,12.75
2024-02-22T12:58:35.228Z,13.04
2024-02-22T13:01:03.775Z,12.83
2024-02-22T13:03:31.408Z,12.72
2024-02-22T13:05:58.748Z,12.97
2024-02-22T13:08:30.833Z,13.37
2024-02-22T13:10:59.906Z,13.50
2024-02-22T13:13:26.919Z,13.92
2024-02-22T13:15:53.644Z,14.23
2024-02-22T13:18:21.503Z,14.24
2024-02-22T13:20:48.959Z,14.39
2024-02-22T13:23:15.815Z,14.36
2024-02-22T13:25:42.698Z,14.61
2024-02-22T13:28:09.515Z,14.84
2024-02-22T13:30:36.524Z,14.97
2024-02-22T13:33:04.299Z,15.07
2024-02-22T13:35:31.224Z,14.81
2024-02-22T13:37:59.017Z,14.92
2024-02-22T13:40:28.970Z,15.19
2024-02-22T13:42:56.475Z,15.23
2024-02-22T13:45:23.218Z,15.18
2024-02-22T13:47:50.008Z,15.54
2024-02-22T13:50:17.859Z,15.33
2024-02-22T13:52:45.431Z,15.29
2024-02-22T13:55:12.917Z,15.81
2024-02-22T13:57:39.909Z,15.54
2024-02-22T14:00:08.176Z,15.03
2024-02-22T14:02:39.508Z,14.95
2024-02-22T14:05:06.522Z,14.71
2024-02-22T14:07:33.563Z,14.52
2024-02-22T14:10:01.739Z,14.42
2024-02-22T14:12:29.230Z,14.55
2024-02-22T14:14:56.052Z,14.59
2024-02-22T14:17:26.174Z,15.01
2024-02-22T14:19:53.608Z,15.42
2024-02-22T14:22:20.649Z,15.56
2024-02-22T14:24:47.484Z,15.55
2024-02-22T14:27:14.880Z,15.51
2024-02-22T14:29:44.581Z,15.54
2024-02-22T14:32:13.671Z,15.48
2024-02-22T14:34:41.856Z,15.47
2024-02-22T14:37:12.831Z,15.52
2024-02-22T14:39:39.965Z,15.68
2024-02-22T14:42:06.933Z,15.79
2024-02-22T14:44:33.902Z,15.84
2024-02-22T14:47:04.023Z,15.72
2024-02-22T14:49:31.236Z,15.33
2024-02-22T14:51:58.029Z,14.96
2024-02-22T14:54:24.815Z,14.49
2024-02-22T14:56:51.785Z,15.24
2024-02-22T14:59:20.167Z,14.77
2024-02-22T15:01:47.257Z,14.55
2024-02-22T15:04:14.145Z,14.75
2024-02-22T15:06:46.492Z,14.18
2024-02-22T15:09:17.505Z,14.18
2024-02-22T15:11:45.792Z,14.06
2024-02-22T15:14:13.402Z,14.29
2024-02-22T15:16:41.969Z,14.24
2024-02-22T15:19:09.195Z,14.64
2024-02-22T15:21:35.869Z,14.55
2024-02-22T15:24:02.727Z,14.58
2024-02-22T15:26:30.211Z,14.64
2024-02-22T15:28:57.057Z,14.54
2024-02-22T15:31:23.871Z,14.69
2024-02-22T15:33:57.908Z,14.76
2024-02-22T15:36:30.912Z,14.77
2024-02-22T15:38:58.362Z,14.75
2024-02-22T15:41:25.732Z,14.57
2024-02-22T15:43:55.832Z,14.30
2024-02-22T15:46:23.495Z,14.47
2024-02-22T15:48:52.818Z,14.25
2024-02-22T15:51:20.647Z,14.46
2024-02-22T15:53:47.535Z,14.40
2024-02-22T15:56:17.437Z,14.54
2024-02-22T15:58:44.418Z,14.46
2024-02-22T16:01:17.896Z,14.67
2024-02-22T16:03:47.577Z,14.64
2024-02-22T16:06:14.621Z,14.56
2024-02-22T16:08:41.796Z,14.24
2024-02-22T16:11:09.851Z,14.27
2024-02-22T16:13:40.596Z,14.23
2024-02-22T16:16:08.005Z,14.32
2024-02-22T16:18:36.692Z,14.09
2024-02-22T16:21:05.074Z,13.69
2024-02-22T16:23:33.677Z,13.83
2024-02-22T16:26:00.596Z,13.89
2024-02-22T16:28:30.343Z,14.05
2024-02-22T16:30:59.532Z,14.13
2024-02-22T16:33:28.071Z,13.93
2024-02-22T16:35:55.096Z,14.05
2024-02-22T16:38:22.176Z,13.71
2024-02-22T16:40:49.027Z,13.59
2024-02-22T16:43:15.831Z,13.52
2024-02-22T16:45:42.598Z,13.75
2024-02-22T16:48:09.904Z,13.61
2024-02-22T16:50:36.787Z,13.80
2024-02-22T16:53:03.722Z,13.60
2024-02-22T16:55:30.484Z,13.57
2024-02-22T16:57:57.291Z,13.59
2024-02-22T17:00:24.213Z,13.65
2024-02-22T17:02:51.525Z,13.41
2024-02-22T17:05:19.818Z,13.30
2024-02-22T17:07:48.006Z,13.38
2024-02-22T17:10:19.771Z,13.73
2024-02-22T17:12:47.271Z,13.69
2024-02-22T17:15:14.343Z,13.40
2024-02-22T17:17:41.146Z,13.52
2024-02-22T17:20:08.543Z,13.56
2024-02-22T17:22:35.904Z,13.57
2024-02-22T17:25:02.996Z,13.67
2024-02-22T17:27:30.314Z,13.66
2024-02-22T17:29:57.259Z,13.66
2024-02-22T17:32:24.188Z,13.66
2024-02-22T17:34:51.086Z,13.61
2024-02-22T17:37:18.141Z,13.75
2024-02-22T17:39:45.417Z,13.55
2024-02-22T17:42:12.228Z,13.53
2024-02-22T17:44:39.237Z,13.55
2024-02-22T17:47:06.240Z,13.84
2024-02-22T17:49:32.938Z,13.74
2024-02-22T17:52:01.906Z,13.70
2024-02-22T17:54:28.847Z,13.49
2024-02-22T17:56:55.950Z,13.49
2024-02-22T17:59:22.622Z,13.70
2024-02-22T18:01:51.073Z,13.71
2024-02-22T18:04:24.212Z,13.52
2024-02-22T18:06:53.239Z,13.40
2024-02-22T18:09:22.099Z,13.65
2024-02-22T18:11:49.400Z,13.87
2024-02-22T18:14:16.698Z,13.87
2024-02-22T18:16:44.606Z,13.67
2024-02-22T18:19:11.756Z,13.62
2024-02-22T18:21:38.835Z,13.66
2024-02-22T18:24:05.748Z,13.60
2024-02-22T18:26:34.328Z,13.51
2024-02-22T18:29:01.340Z,13.56
2024-02-22T18:31:28.124Z,13.69
2024-02-22T18:33:54.922Z,13.50
2024-02-22T18:36:21.802Z,13.37
2024-02-22T18:38:48.501Z,13.41
2024-02-22T18:41:16.108Z,13.20
2024-02-22T18:43:43.403Z,13.26
2024-02-22T18:46:10.505Z,13.15
2024-02-22T18:48:38.461Z,13.32
2024-02-22T18:51:05.440Z,13.34
2024-02-22T18:53:32.314Z,13.25
2024-02-22T18:56:00.354Z,13.30
2024-02-22T18:58:27.200Z,13.24
2024-02-22T19:00:54.667Z,13.02
2024-02-22T19:03:21.703Z,12.89
2024-02-22T19:05:50.188Z,12.79
2024-02-22T19:08:17.541Z,13.00
2024-02-22T19:10:44.615Z,12.80
2024-02-22T19:13:11.516Z,13.03
2024-02-22T19:15:38.320Z,13.14
2024-02-22T19:18:06.801Z,13.05
2024-02-22T19:20:33.990Z,13.16
2024-02-22T19:23:00.813Z,13.25
2024-02-22T19:25:28.327Z,13.14
2024-02-22T19:27:55.079Z,13.32
2024-02-22T19:30:21.852Z,13.34
2024-02-22T19:32:49.016Z,13.57
2024-02-22T19:35:20.197Z,13.67
2024-02-22T19:37:48.815Z,13.69
2024-02-22T19:40:16.012Z,13.74
2024-02-22T19:42:42.897Z,13.87
2024-02-22T19:45:10.189Z,13.86
2024-02-22T19:47:37.149Z,13.69
2024-02-22T19:50:05.092Z,13.18
2024-02-22T19:52:31.984Z,13.60
2024-02-22T19:54:59.802Z,13.25
2024-02-22T19:57:31.285Z,13.33
2024-02-22T19:59:58.332Z,13.25
2024-02-22T20:02:27.921Z,13.05
2024-02-22T20:04:56.259Z,13.13
2024-02-22T20:07:24.348Z,12.84
2024-02-22T20:09:51.591Z,12.94
2024-02-22T20:12:19.756Z,12.83
2024-02-22T20:14:47.960Z,12.83
2024-02-22T20:17:15.738Z,12.93
2024-02-22T20:19:46.343Z,12.95
2024-02-22T20:22:13.635Z,12.93
2024-02-22T20:24:41.066Z,12.88
2024-02-22T20:27:08.133Z,12.96
2024-02-22T20:29:35.053Z,12.88
2024-02-22T20:32:06.138Z,12.88
2024-02-22T20:34:33.566Z,12.92
2024-02-22T20:37:01.044Z,12.92
2024-02-22T20:39:28.148Z,12.90
2024-02-22T20:41:55.175Z,12.83
2024-02-22T20:44:23.070Z,13.25
2024-02-22T20:46:50.631Z,13.04
2024-02-22T20:49:17.860Z,13.11
2024-02-22T20:51:49.601Z,13.11
2024-02-22T20:54:16.663Z,13.13
2024-02-22T20:56:43.454Z,13.23
2024-02-22T20:59:13.662Z,13.20
2024-02-22T21:01:40.588Z,13.22
2024-02-22T21:04:08.322Z,13.29
2024-02-22T21:06:35.183Z,12.92
2024-02-22T21:09:04.921Z,13.31
2024-02-22T21:11:32.014Z,13.30
2024-02-22T21:13:58.979Z,13.01
2024-02-22T21:16:27.610Z,13.29
2024-02-22T21:18:54.857Z,13.41
2024-02-22T21:21:21.747Z,13.47
2024-02-22T21:23:48.816Z,13.52
2024-02-22T21:26:15.787Z,13.36
2024-02-22T21:28:42.995Z,13.43
2024-02-22T21:31:12.037Z,13.58
2024-02-22T21:33:40.655Z,13.53
2024-02-22T21:36:08.680Z,13.72
2024-02-22T21:38:36.143Z,13.47
2024-02-22T21:41:07.704Z,13.63
2024-02-22T21:43:37.632Z,13.68
2024-02-22T21:46:06.021Z,13.96
2024-02-22T21:48:34.564Z,13.99
2024-02-22T21:51:09.012Z,14.12
2024-02-22T21:53:36.061Z,13.84
2024-02-22T21:56:03.055Z,14.15
2024-02-22T21:58:31.171Z,13.68
2024-02-22T22:00:57.948Z,13.86
2024-02-22T22:03:24.771Z,13.99
2024-02-22T22:05:51.573Z,13.72
2024-02-22T22:08:19.025Z,13.56
2024-02-22T22:10:46.025Z,13.80
2024-02-22T22:13:12.917Z,13.78
2024-02-22T22:15:39.739Z,13.70
2024-02-22T22:18:06.752Z,13.79
2024-02-22T22:20:33.381Z,13.91
2024-02-22T22:23:00.286Z,13.85
2024-02-22T22:25:27.090Z,13.92
2024-02-22T22:27:53.837Z,13.75
2024-02-22T22:30:20.589Z,13.89
2024-02-22T22:32:47.444Z,13.64
2024-02-22T22:35:14.466Z,13.90
2024-02-22T22:37:41.204Z,14.02
2024-02-22T22:40:08.409Z,13.99
2024-02-22T22:42:35.130Z,14.24
2024-02-22T22:45:01.931Z,13.69
2024-02-22T22:47:28.752Z,13.83
2024-02-22T22:49:55.656Z,13.93
2024-02-22T22:52:22.459Z,13.79
2024-02-22T22:54:49.202Z,13.89
2024-02-22T22:57:16.057Z,13.61
2024-02-22T22:59:44.244Z,13.59
2024-02-22T23:02:11.210Z,13.89
2024-02-22T23:04:38.581Z,14.04
2024-02-22T23:07:05.395Z,14.45
2024-02-22T23:09:32.140Z,14.09
2024-02-22T23:11:59.028Z,13.90
2024-02-22T23:14:27.455Z,13.88
2024-02-22T23:16:54.314Z,14.11
2024-02-22T23:19:21.087Z,14.06
2024-02-22T23:21:47.884Z,13.83
2024-02-22T23:24:14.741Z,13.88
2024-02-22T23:26:41.547Z,14.02
2024-02-22T23:29:09.399Z,13.91
2024-02-22T23:31:36.614Z,13.78
2024-02-22T23:34:03.723Z,14.11
2024-02-22T23:36:30.796Z,13.85
2024-02-22T23:38:57.673Z,14.02
2024-02-22T23:41:29.412Z,13.70
2024-02-22T23:44:00.225Z,14.06
2024-02-22T23:46:27.104Z,13.83
2024-02-22T23:48:54.644Z,13.70
2024-02-22T23:51:21.525Z,13.82
2024-02-22T23:53:48.380Z,13.66
2024-02-22T23:56:15.803Z,13.84
2024-02-22T23:58:42.743Z,13.66
